Time;durP1;ratioP1;P1;durP2;ratioP2;P2;SDS_P1;SDS_P2;PMS_P1;PMS_P2;Temp;Humidity;BMP_temperature;BMP_pressure;BME280_temperature;BME280_humidity;BME280_pressure;Samples;Min_cycle;Max_cycle;Signal;HPM_P1;HPM_P2
2022/03/14 00:01:29;;;;;;;;;1.00;1.00;;;;;8.01;88.03;99990.63;5051458;28;45398;-79
2022/03/14 00:03:55;;;;;;;;;0.50;0.50;;;;;8.02;87.35;99992.38;5053377;28;45401;-79
2022/03/14 00:06:21;;;;;;;;;0.75;0.75;;;;;8.05;87.74;99991.44;5027798;28;46096;-79
2022/03/14 00:08:47;;;;;;;;;0.25;0.25;;;;;8.07;87.86;99994.91;5032275;28;47105;-79
2022/03/14 00:11:14;;;;;;;;;2.00;0.25;;;;;8.09;87.42;100001.00;5032300;28;45532;-79
2022/03/14 00:13:43;;;;;;;;;0.25;0.25;;;;;8.09;87.09;100008.88;5047141;28;45532;-79
2022/03/14 00:16:10;;;;;;;;;1.00;1.00;;;;;8.10;87.74;100004.50;5043702;28;45919;-79
2022/03/14 00:18:36;;;;;;;;;1.00;1.00;;;;;8.12;87.68;100003.56;5054667;28;48713;-79
2022/03/14 00:21:02;;;;;;;;;0.75;0.75;;;;;8.14;87.58;100003.56;5048585;28;45601;-79
2022/03/14 00:23:28;;;;;;;;;0.00;0.00;;;;;8.15;87.41;100016.66;5050104;28;45803;-79
2022/03/14 00:25:54;;;;;;;;;0.25;0.00;;;;;8.15;86.83;100008.78;5050397;28;45567;-79
2022/03/14 00:28:20;;;;;;;;;1.00;0.00;;;;;8.14;86.99;100000.94;5033921;28;47403;-79
2022/03/14 00:30:46;;;;;;;;;1.00;1.00;;;;;8.13;86.91;100002.69;5047417;28;45521;-79
2022/03/14 00:33:12;;;;;;;;;1.00;1.00;;;;;8.15;87.09;100003.53;5062586;28;45521;-79
2022/03/14 00:35:37;;;;;;;;;0.00;0.00;;;;;8.17;87.15;100000.88;5059430;28;45431;-79
2022/03/14 00:38:03;;;;;;;;;0.50;0.50;;;;;8.16;87.18;99999.16;5057274;28;45392;-79
2022/03/14 00:40:29;;;;;;;;;1.00;1.00;;;;;8.18;87.01;100008.75;5046506;28;45544;-79
2022/03/14 00:42:54;;;;;;;;;0.75;0.75;;;;;8.19;86.88;100012.25;5056520;28;45858;-79
2022/03/14 00:45:24;;;;;;;;;1.25;0.00;;;;;8.20;86.58;100016.59;5057531;28;45545;-79
2022/03/14 00:47:50;;;;;;;;;2.25;0.75;;;;;8.19;86.92;100005.22;5059462;28;45583;-79
2022/03/14 00:50:16;;;;;;;;;1.75;0.00;;;;;8.18;87.33;100013.13;5054291;28;45447;-78
2022/03/14 00:52:41;;;;;;;;;1.00;1.00;;;;;8.19;86.77;100013.09;5055905;28;45575;-79
2022/03/14 00:55:07;;;;;;;;;0.00;0.00;;;;;8.19;86.49;100012.25;5059039;28;45452;-79
2022/03/14 00:57:33;;;;;;;;;0.00;0.00;;;;;8.19;86.44;100014.88;5047314;28;46614;-79
2022/03/14 00:59:58;;;;;;;;;0.25;0.25;;;;;8.19;86.56;100013.09;5056022;28;45378;-79
2022/03/14 01:02:24;;;;;;;;;0.50;0.50;;;;;8.17;86.27;100012.25;5030277;28;45920;-79
2022/03/14 01:04:50;;;;;;;;;0.75;0.00;;;;;8.17;86.58;100022.75;5058478;28;45630;-79
2022/03/14 01:07:15;;;;;;;;;0.00;0.00;;;;;8.17;86.74;100017.50;5052819;28;46252;-80
2022/03/14 01:09:40;;;;;;;;;0.50;0.50;;;;;8.18;86.84;100018.38;5060677;28;45575;-80
2022/03/14 01:12:07;;;;;;;;;0.00;0.00;;;;;8.16;86.17;100017.53;5057095;28;45472;-79
2022/03/14 01:14:32;;;;;;;;;1.00;1.00;;;;;8.17;86.30;100024.53;5066457;28;45532;-79
2022/03/14 01:16:58;;;;;;;;;1.00;1.00;;;;;8.17;86.08;100027.16;5055687;28;45507;-79
2022/03/14 01:19:23;;;;;;;;;0.50;0.50;;;;;8.16;86.18;100031.53;5057824;28;45454;-79
2022/03/14 01:21:49;;;;;;;;;1.75;0.50;;;;;8.14;85.93;100025.44;5058520;28;45479;-79
2022/03/14 01:24:14;;;;;;;;;2.00;1.00;;;;;8.13;86.02;100030.72;5055930;28;45552;-79
2022/03/14 01:26:40;;;;;;;;;0.00;0.00;;;;;8.13;85.75;100023.69;5055736;28;45740;-79
2022/03/14 01:29:07;;;;;;;;;0.75;0.75;;;;;8.11;85.77;100012.34;5055774;28;45342;-79
2022/03/14 01:31:32;;;;;;;;;0.00;0.00;;;;;8.11;85.48;100011.47;5035669;28;45449;-79
2022/03/14 01:33:58;;;;;;;;;0.25;0.25;;;;;8.11;85.90;100020.22;5054502;28;45435;-79
2022/03/14 01:36:24;;;;;;;;;1.00;1.00;;;;;8.09;86.11;100016.75;5037033;28;48357;-80
2022/03/14 01:38:50;;;;;;;;;1.50;1.25;;;;;8.07;85.79;100013.28;5037774;28;45737;-80
2022/03/14 01:41:19;;;;;;;;;0.00;0.00;;;;;8.05;85.75;100015.94;5039546;28;45449;-79
2022/03/14 01:43:48;;;;;;;;;0.00;0.00;;;;;8.03;85.89;100024.75;5060271;28;45389;-80
2022/03/14 01:46:16;;;;;;;;;1.00;1.00;;;;;8.00;85.81;100016.91;5045347;28;46116;-79
2022/03/14 01:48:42;;;;;;;;;0.75;0.75;;;;;7.95;85.89;100016.97;5035584;28;45741;-79
2022/03/14 01:51:07;;;;;;;;;2.75;1.00;;;;;7.92;86.38;100014.38;5036425;28;45641;-80
2022/03/14 01:53:35;;;;;;;;;2.00;2.00;;;;;7.90;86.52;100017.91;5058244;28;45483;-80
2022/03/14 01:56:00;;;;;;;;;2.33;2.33;;;;;7.88;86.36;100023.19;5056071;28;45459;-80
2022/03/14 01:58:26;;;;;;;;;1.00;1.00;;;;;7.87;86.17;100024.13;5053136;28;45442;-80
2022/03/14 02:00:51;;;;;;;;;2.00;2.00;;;;;7.85;86.26;100020.63;5045558;28;45376;-80
2022/03/14 02:03:17;;;;;;;;;1.00;1.00;;;;;7.84;86.53;100026.78;5047045;28;45390;-80
2022/03/14 02:05:45;;;;;;;;;1.00;1.00;;;;;7.86;86.52;100016.25;5058402;28;45441;-79
2022/03/14 02:08:10;;;;;;;;;1.00;1.00;;;;;7.86;86.64;100022.38;5052537;28;45505;-79
2022/03/14 02:10:36;;;;;;;;;3.00;1.67;;;;;7.86;86.35;100022.38;5055700;28;46116;-79
2022/03/14 02:13:06;;;;;;;;;3.33;2.00;;;;;7.87;86.97;100020.63;5055266;28;45631;-80
2022/03/14 02:15:32;;;;;;;;;4.00;3.00;;;;;7.87;86.78;100023.25;5062708;28;46433;-80
2022/03/14 02:17:57;;;;;;;;;6.33;3.00;;;;;7.86;86.84;100017.13;5038253;28;45443;-80
2022/03/14 02:20:23;;;;;;;;;5.67;5.67;;;;;7.85;87.10;100020.63;5055262;28;45429;-80
2022/03/14 02:22:49;;;;;;;;;3.33;3.00;;;;;7.86;87.16;100022.38;5058835;28;45529;-79
2022/03/14 02:25:14;;;;;;;;;4.00;4.00;;;;;7.89;87.27;100026.69;5061454;28;46411;-79
2022/03/14 02:27:40;;;;;;;;;13.33;13.00;;;;;7.90;87.08;100031.91;5034409;28;45394;-80
2022/03/14 02:30:06;;;;;;;;;20.33;16.00;;;;;7.92;87.42;100024.03;5031864;28;45413;-79
2022/03/14 02:32:32;;;;;;;;;25.00;22.00;;;;;7.93;86.89;100028.38;5054654;28;45488;-80
2022/03/14 02:34:57;;;;;;;;;18.33;16.67;;;;;7.93;87.85;100028.38;5037737;28;45633;-79
2022/03/14 02:37:23;;;;;;;;;21.67;19.67;;;;;7.95;87.72;100031.84;5042947;28;45467;-80
2022/03/14 02:39:48;;;;;;;;;16.67;16.33;;;;;7.94;87.16;100030.13;5055083;28;45454;-79
2022/03/14 02:42:14;;;;;;;;;25.00;23.33;;;;;7.94;87.10;100030.13;5060174;28;45468;-80
2022/03/14 02:44:43;;;;;;;;;29.00;25.00;;;;;7.94;87.24;100030.13;5036440;28;46994;-80
2022/03/14 02:47:09;;;;;;;;;25.67;23.67;;;;;7.93;87.25;100023.13;5054758;28;45425;-80
2022/03/14 02:49:35;;;;;;;;;22.67;22.33;;;;;7.96;86.86;100028.34;5054323;28;45535;-79
2022/03/14 02:52:01;;;;;;;;;27.33;21.67;;;;;7.94;86.61;100038.00;5038592;28;45670;-80
2022/03/14 02:54:27;;;;;;;;;19.67;18.67;;;;;7.92;86.79;100031.91;5061252;28;45587;-80
2022/03/14 02:56:52;;;;;;;;;23.00;19.33;;;;;7.92;86.96;100035.38;5047387;28;45691;-80
2022/03/14 02:59:19;;;;;;;;;14.67;11.67;;;;;7.94;87.02;100046.75;5047428;28;45429;-79
2022/03/14 03:01:45;;;;;;;;;9.67;9.67;;;;;7.96;86.64;100046.72;5037275;28;45570;-79
2022/03/14 03:04:10;;;;;;;;;5.00;4.33;;;;;7.96;86.28;100039.72;5054235;28;46588;-79
2022/03/14 03:06:36;;;;;;;;;2.67;2.67;;;;;7.99;86.50;100046.69;5058981;28;45439;-80
2022/03/14 03:09:03;;;;;;;;;4.00;4.00;;;;;8.00;86.14;100045.78;5058130;28;45355;-80
2022/03/14 03:11:30;;;;;;;;;6.33;3.00;;;;;7.97;85.84;100044.06;5050825;28;45603;-79
2022/03/14 03:13:56;;;;;;;;;3.67;3.00;;;;;7.99;86.65;100046.69;5056551;28;46153;-79
2022/03/14 03:16:22;;;;;;;;;3.00;3.00;;;;;8.02;86.50;100046.63;5059326;28;45692;-80
2022/03/14 03:18:47;;;;;;;;;2.00;2.00;;;;;8.04;86.64;100045.69;5058279;28;45508;-79
2022/03/14 03:21:13;;;;;;;;;2.67;2.67;;;;;8.06;86.50;100043.91;5055214;28;45475;-80
2022/03/14 03:23:39;;;;;;;;;0.50;0.50;;;;;8.09;86.21;100053.53;5053827;28;46108;-80
2022/03/14 03:26:06;;;;;;;;;4.00;4.00;;;;;8.12;86.18;100055.22;5032292;28;45547;-79
2022/03/14 03:28:37;;;;;;;;;4.67;3.00;;;;;8.14;86.33;100056.09;5045815;28;45568;-79
2022/03/14 03:31:03;;;;;;;;;3.00;3.00;;;;;8.17;86.45;100063.91;5052267;28;45444;-79
2022/03/14 03:33:28;;;;;;;;;3.00;3.00;;;;;8.18;85.87;100063.03;5036604;28;48000;-79
2022/03/14 03:35:54;;;;;;;;;3.33;3.33;;;;;8.18;85.70;100061.28;5032482;28;45417;-79
2022/03/14 03:38:19;;;;;;;;;5.00;5.00;;;;;8.19;85.34;100064.78;5049803;28;45401;-79
2022/03/14 03:40:44;;;;;;;;;4.00;4.00;;;;;8.20;85.60;100069.13;5050963;28;46242;-78
2022/03/14 03:43:10;;;;;;;;;2.67;2.67;;;;;8.20;85.73;100074.38;5047818;28;45937;-79
2022/03/14 03:45:35;;;;;;;;;3.67;3.67;;;;;8.21;85.49;100073.50;5056062;28;45464;-79
2022/03/14 03:48:00;;;;;;;;;4.67;4.67;;;;;8.21;85.49;100081.38;5053727;28;45340;-79
2022/03/14 03:50:26;;;;;;;;;3.00;3.00;;;;;8.23;85.70;100074.31;5035462;28;45571;-79
2022/03/14 03:52:51;;;;;;;;;4.00;4.00;;;;;8.22;85.94;100073.44;5052189;28;46269;-79
2022/03/14 03:55:17;;;;;;;;;3.33;3.33;;;;;8.24;86.09;100079.53;5056680;28;45559;-79
2022/03/14 03:57:42;;;;;;;;;8.33;5.33;;;;;8.25;85.76;100078.66;5073603;28;45334;-79
2022/03/14 04:00:12;;;;;;;;;6.67;6.00;;;;;8.25;85.76;100077.78;5069447;28;45681;-79
2022/03/14 04:02:39;;;;;;;;;6.00;5.00;;;;;8.25;85.57;100075.16;5048987;28;46192;-79
2022/03/14 04:05:05;;;;;;;;;7.67;7.67;;;;;8.25;85.66;100076.03;5038880;28;45456;-79
2022/03/14 04:07:32;;;;;;;;;9.67;8.33;;;;;8.27;85.89;100082.13;5056082;28;45417;-79
2022/03/14 04:09:59;;;;;;;;;6.00;6.00;;;;;8.27;85.67;100084.75;5040438;28;45431;-78
2022/03/14 04:12:26;;;;;;;;;11.00;10.00;;;;;8.27;85.48;100086.50;5046231;28;45435;-79
2022/03/14 04:14:52;;;;;;;;;8.67;8.67;;;;;8.26;86.06;100093.53;5063698;28;45438;-79
2022/03/14 04:17:19;;;;;;;;;10.00;10.00;;;;;8.26;86.03;100092.66;5057089;28;45473;-79
2022/03/14 04:19:45;;;;;;;;;12.00;11.00;;;;;8.24;86.13;100092.69;5056663;28;45374;-79
2022/03/14 04:22:13;;;;;;;;;16.00;15.00;;;;;8.25;86.08;100096.19;5048503;28;46442;-79
2022/03/14 04:24:38;;;;;;;;;13.67;11.67;;;;;8.24;86.02;100087.44;5043920;28;45415;-79
2022/03/14 04:27:04;;;;;;;;;19.33;15.33;;;;;8.23;86.06;100101.44;5044699;28;45358;-79
2022/03/14 04:29:30;;;;;;;;;16.00;13.00;;;;;8.24;86.00;100100.56;5039007;28;45574;-79
2022/03/14 04:31:56;;;;;;;;;12.67;11.00;;;;;8.23;86.03;100098.81;5057778;28;45575;-78
2022/03/14 04:34:21;;;;;;;;;19.33;17.33;;;;;8.22;86.06;100104.09;5038477;28;45468;-79
2022/03/14 04:36:56;;;;;;;;;14.67;12.00;;;;;8.20;86.56;100104.16;5059055;28;45560;-79
2022/03/14 04:39:22;;;;;;;;;14.00;13.00;;;;;8.18;86.02;100100.69;5043563;28;45413;-79
2022/03/14 04:41:47;;;;;;;;;18.67;14.67;;;;;8.17;86.07;100109.44;5058407;28;46502;-79
2022/03/14 04:44:13;;;;;;;;;11.00;11.00;;;;;8.15;86.47;100108.59;5038089;28;45442;-79
2022/03/14 04:46:39;;;;;;;;;17.33;17.33;;;;;8.13;86.28;100110.38;5041178;28;45720;-79
2022/03/14 04:49:05;;;;;;;;;19.00;17.00;;;;;8.12;86.44;100111.25;5059229;28;45752;-79
2022/03/14 04:51:32;;;;;;;;;19.33;16.00;;;;;8.10;86.25;100113.03;5035721;28;48526;-79
2022/03/14 04:53:57;;;;;;;;;14.67;13.00;;;;;8.08;86.49;100114.81;5058837;28;45382;-79
2022/03/14 04:56:23;;;;;;;;;19.67;16.67;;;;;8.07;86.54;100113.06;5052801;28;45410;-79
2022/03/14 04:58:49;;;;;;;;;20.33;18.33;;;;;8.05;86.48;100118.34;5055891;28;45661;-79
2022/03/14 05:01:15;;;;;;;;;17.67;14.67;;;;;8.05;86.72;100117.47;5048899;28;45492;-79
2022/03/14 05:03:40;;;;;;;;;16.00;14.67;;;;;8.02;86.20;100121.03;5059676;28;45472;-79
2022/03/14 05:06:06;;;;;;;;;19.00;15.67;;;;;8.00;85.98;100122.81;5054701;28;45531;-79
2022/03/14 05:08:31;;;;;;;;;22.33;16.00;;;;;7.98;86.22;100124.59;5054333;28;45487;-79
2022/03/14 05:10:57;;;;;;;;;19.00;16.67;;;;;7.97;86.32;100125.47;5063708;28;45639;-79
2022/03/14 05:13:23;;;;;;;;;16.33;14.67;;;;;7.96;86.26;100136.88;5034184;28;45461;-79
2022/03/14 05:15:48;;;;;;;;;15.67;13.33;;;;;7.94;85.82;100125.50;5047540;28;45623;-79
2022/03/14 05:18:14;;;;;;;;;12.33;10.33;;;;;7.92;86.00;100134.28;5052937;28;45543;-79
2022/03/14 05:20:40;;;;;;;;;11.33;11.00;;;;;7.90;85.20;100141.31;5055313;28;46398;-79
2022/03/14 05:23:06;;;;;;;;;11.33;10.33;;;;;7.88;85.00;100137.84;5055655;28;45514;-80
2022/03/14 05:25:31;;;;;;;;;15.33;15.33;;;;;7.85;85.10;100151.91;5056154;28;45495;-79
2022/03/14 05:27:57;;;;;;;;;12.67;11.00;;;;;7.85;85.13;100148.41;5055815;28;45426;-78
2022/03/14 05:30:24;;;;;;;;;11.67;11.00;;;;;7.82;84.94;100144.06;5056498;28;45639;-79
2022/03/14 05:32:50;;;;;;;;;13.00;10.67;;;;;7.80;84.53;100148.44;5058229;28;45510;-78
2022/03/14 05:35:16;;;;;;;;;13.00;11.00;;;;;7.79;84.27;100157.22;5066661;28;45493;-78
2022/03/14 05:37:42;;;;;;;;;10.00;10.00;;;;;7.77;84.61;100155.47;5038470;28;45621;-79
2022/03/14 05:40:10;;;;;;;;;9.67;9.67;;;;;7.76;84.86;100156.38;5054750;28;46158;-79
2022/03/14 05:42:35;;;;;;;;;14.00;11.67;;;;;7.75;85.00;100160.75;5043146;28;45379;-79
2022/03/14 05:45:00;;;;;;;;;10.33;10.33;;;;;7.74;85.19;100152.88;5037168;28;45516;-79
2022/03/14 05:47:26;;;;;;;;;16.00;16.00;;;;;7.73;85.29;100159.91;5052472;28;45448;-79
2022/03/14 05:49:51;;;;;;;;;11.00;11.00;;;;;7.72;85.30;100168.66;5054974;28;46313;-78
2022/03/14 05:52:17;;;;;;;;;14.00;10.67;;;;;7.71;85.17;100166.91;5047515;28;45442;-78
2022/03/14 05:54:42;;;;;;;;;15.67;13.33;;;;;7.69;85.47;100164.34;5055453;28;45568;-78
2022/03/14 05:57:08;;;;;;;;;12.33;10.00;;;;;7.68;85.61;100166.97;5057708;28;45489;-79
2022/03/14 05:59:34;;;;;;;;;15.00;12.33;;;;;7.69;85.57;100171.34;5054712;28;45550;-79
2022/03/14 06:01:59;;;;;;;;;13.67;12.00;;;;;7.69;85.01;100171.34;5045600;28;45544;-79
2022/03/14 06:04:25;;;;;;;;;16.00;16.00;;;;;7.69;85.63;100171.34;5055619;28;45330;-79
2022/03/14 06:06:50;;;;;;;;;17.67;17.00;;;;;7.70;85.78;100192.31;5034842;28;45676;-79
2022/03/14 06:09:16;;;;;;;;;15.00;15.00;;;;;7.71;85.44;100190.53;5058129;28;46558;-79
2022/03/14 06:11:42;;;;;;;;;15.00;12.00;;;;;7.73;85.71;100196.63;5062835;28;45540;-79
2022/03/14 06:14:08;;;;;;;;;19.67;17.33;;;;;7.74;85.78;100194.88;5040147;28;45417;-78
2022/03/14 06:16:34;;;;;;;;;19.00;16.67;;;;;7.74;85.77;100192.25;5030340;28;45492;-78
2022/03/14 06:18:59;;;;;;;;;18.67;16.00;;;;;7.74;85.34;100198.38;5057409;28;45909;-79
2022/03/14 06:21:24;;;;;;;;;16.33;16.33;;;;;7.75;85.46;100200.13;5049849;28;45457;-79
2022/03/14 06:23:50;;;;;;;;;16.00;16.00;;;;;7.79;85.40;100204.47;5037427;28;45965;-78
2022/03/14 06:26:16;;;;;;;;;17.33;15.00;;;;;7.82;85.80;100196.56;5067635;28;45513;-65
2022/03/14 06:28:42;;;;;;;;;18.67;17.67;;;;;7.95;85.59;100203.38;5054638;28;45433;-67
2022/03/14 06:31:11;;;;;;;;;16.00;12.00;;;;;8.02;85.29;100201.56;5056656;28;45557;-67
2022/03/14 06:33:39;;;;;;;;;14.33;12.33;;;;;8.07;85.13;100199.72;5051047;28;45458;-67
2022/03/14 06:36:05;;;;;;;;;14.67;14.67;;;;;8.10;85.11;100199.69;5058679;28;45451;-67
2022/03/14 06:38:32;;;;;;;;;16.50;16.50;;;;;8.13;85.12;100197.03;5054290;28;45407;-67
2022/03/14 06:40:57;;;;;;;;;20.33;17.33;;;;;8.16;84.66;100201.38;5049940;28;45388;-67
2022/03/14 06:43:24;;;;;;;;;16.00;12.00;;;;;8.20;85.02;100208.34;5054792;28;45391;-67
2022/03/14 06:45:50;;;;;;;;;18.33;17.00;;;;;8.22;84.76;100212.66;5063484;28;45481;-67
2022/03/14 06:48:16;;;;;;;;;15.67;13.33;;;;;8.24;84.91;100218.78;5056156;28;46215;-67
2022/03/14 06:50:41;;;;;;;;;18.00;15.00;;;;;8.29;84.93;100213.47;5051070;28;45409;-68
2022/03/14 06:53:07;;;;;;;;;13.33;13.33;;;;;8.32;84.64;100224.84;5047262;28;45611;-66
2022/03/14 06:55:33;;;;;;;;;20.33;17.67;;;;;8.38;84.68;100221.25;5051095;28;45514;-68
2022/03/14 06:57:59;;;;;;;;;17.67;14.00;;;;;8.44;84.50;100228.19;5051508;28;46462;-69
2022/03/14 07:00:25;;;;;;;;;16.33;14.67;;;;;8.48;83.79;100228.13;5056964;28;45464;-67
2022/03/14 07:02:51;;;;;;;;;25.00;18.00;;;;;8.54;84.00;100235.06;5051484;28;45527;-68
2022/03/14 07:05:21;;;;;;;;;18.33;14.67;;;;;8.59;83.73;100235.84;5034675;28;45635;-68
2022/03/14 07:07:48;;;;;;;;;18.67;17.00;;;;;8.62;83.88;100234.06;5026922;28;47108;-68
2022/03/14 07:10:14;;;;;;;;;16.67;16.67;;;;;8.68;83.53;100243.63;5056467;28;45406;-68
2022/03/14 07:12:45;;;;;;;;;15.67;14.33;;;;;8.73;83.42;100239.16;5048191;28;45477;-69
2022/03/14 07:15:20;;;;;;;;;17.00;15.00;;;;;8.77;83.47;100250.50;5052973;28;45416;-68
2022/03/14 07:17:46;;;;;;;;;22.00;19.67;;;;;8.81;83.39;100250.44;5048010;28;45919;-69
2022/03/14 07:20:12;;;;;;;;;15.33;14.67;;;;;8.88;83.18;100253.84;5052117;28;45312;-68
2022/03/14 07:22:52;;;;;;;;;16.67;15.33;;;;;8.94;82.60;100256.38;5053536;28;45592;-68
2022/03/14 07:25:23;;;;;;;;;27.67;21.00;;;;;8.98;82.77;100253.69;5051534;28;45460;-68
2022/03/14 07:27:48;;;;;;;;;17.67;14.33;;;;;9.02;82.46;100252.75;5027832;28;47664;-68
2022/03/14 07:30:14;;;;;;;;;19.33;16.33;;;;;9.09;82.48;100256.13;5051821;28;45507;-68
2022/03/14 07:32:40;;;;;;;;;16.67;15.67;;;;;9.15;82.39;100257.81;5035271;28;45424;-68
2022/03/14 07:35:06;;;;;;;;;20.67;18.67;;;;;9.22;81.85;100259.41;5046313;28;45460;-68
2022/03/14 07:37:32;;;;;;;;;16.67;15.33;;;;;9.29;81.82;100259.31;5050711;28;45749;-68
2022/03/14 07:39:57;;;;;;;;;13.00;12.67;;;;;9.36;81.55;100268.84;5051536;28;45587;-66
2022/03/14 07:42:24;;;;;;;;;16.67;15.67;;;;;9.40;80.65;100267.00;5043327;28;45763;-68
2022/03/14 07:44:49;;;;;;;;;18.33;16.33;;;;;9.42;80.90;100268.72;5053508;28;45141;-68
2022/03/14 07:47:15;;;;;;;;;17.00;15.00;;;;;9.47;80.77;100263.41;5045378;28;45477;-68
2022/03/14 07:49:40;;;;;;;;;19.00;16.33;;;;;9.52;80.49;100271.22;5053596;28;45329;-68
2022/03/14 07:52:07;;;;;;;;;16.00;14.33;;;;;9.58;79.83;100276.34;5046949;28;45433;-68
2022/03/14 07:54:33;;;;;;;;;17.00;16.67;;;;;9.60;79.85;100272.81;5048800;28;45440;-68
2022/03/14 07:56:59;;;;;;;;;14.33;14.00;;;;;9.64;79.67;100277.13;5049894;28;47635;-68
2022/03/14 07:59:24;;;;;;;;;14.33;14.00;;;;;9.68;79.20;100275.31;5053264;28;45388;-68
2022/03/14 08:01:50;;;;;;;;;14.00;13.00;;;;;9.70;79.39;100269.13;5048088;28;45475;-68
2022/03/14 08:04:15;;;;;;;;;18.00;15.67;;;;;9.72;79.24;100269.06;5053386;28;45485;-68
2022/03/14 08:06:43;;;;;;;;;18.33;18.33;;;;;9.76;79.03;100274.25;5046768;28;46469;-68
2022/03/14 08:09:09;;;;;;;;;15.33;13.33;;;;;9.79;78.72;100276.84;5040634;28;45445;-68
2022/03/14 08:11:35;;;;;;;;;16.67;16.67;;;;;9.84;79.00;100271.50;5042724;28;45380;-68
2022/03/14 08:14:02;;;;;;;;;10.33;7.67;;;;;9.88;78.37;100270.56;5047963;28;45358;-68
2022/03/14 08:16:27;;;;;;;;;16.00;14.00;;;;;9.95;78.21;100268.66;5050447;28;45517;-68
2022/03/14 08:18:53;;;;;;;;;12.67;12.67;;;;;10.02;77.98;100272.91;5031317;28;45467;-68
2022/03/14 08:21:18;;;;;;;;;19.67;14.33;;;;;10.08;77.91;100278.06;5047849;28;45521;-68
2022/03/14 08:23:47;;;;;;;;;17.67;11.33;;;;;10.19;77.92;100283.16;5047406;28;45554;-68
2022/03/14 08:26:13;;;;;;;;;14.00;12.33;;;;;10.27;77.11;100281.22;5051951;28;45463;-68
2022/03/14 08:28:43;;;;;;;;;13.67;13.33;;;;;10.34;77.12;100281.09;5053190;28;45412;-68
2022/03/14 08:31:10;;;;;;;;;15.00;13.33;;;;;10.42;76.93;100275.63;5027563;28;45434;-66
2022/03/14 08:33:39;;;;;;;;;16.67;15.67;;;;;10.51;76.46;100283.38;5035341;28;45323;-68
2022/03/14 08:36:06;;;;;;;;;16.67;16.33;;;;;10.60;76.29;100271.75;5048364;28;46177;-68
2022/03/14 08:38:31;;;;;;;;;16.67;15.67;;;;;10.71;75.46;100277.66;5052752;28;45414;-68
2022/03/14 08:40:57;;;;;;;;;15.00;13.67;;;;;10.80;75.39;100275.69;5051302;28;45523;-68
2022/03/14 08:43:23;;;;;;;;;11.33;11.33;;;;;10.87;75.17;100275.56;5050372;28;45470;-68
2022/03/14 08:45:48;;;;;;;;;15.00;15.00;;;;;10.93;74.53;100286.81;5051249;28;45395;-68
2022/03/14 08:48:14;;;;;;;;;14.33;14.00;;;;;11.01;74.38;100281.38;5050529;28;45368;-69
2022/03/14 08:50:43;;;;;;;;;18.33;16.33;;;;;11.10;74.76;100286.41;5061797;28;45444;-68
2022/03/14 08:53:08;;;;;;;;;18.00;16.67;;;;;11.15;73.86;100281.91;5049792;28;45515;-69
2022/03/14 08:55:34;;;;;;;;;23.00;20.67;;;;;11.20;73.35;100280.03;5053874;28;46259;-69
2022/03/14 08:58:00;;;;;;;;;15.00;12.67;;;;;11.26;73.24;100279.00;5051687;28;45313;-69
2022/03/14 09:00:27;;;;;;;;;16.33;15.00;;;;;11.31;72.69;100275.34;5053279;28;45440;-68
2022/03/14 09:02:54;;;;;;;;;18.00;14.00;;;;;11.33;72.65;100268.28;5037535;28;45595;-68
2022/03/14 09:05:20;;;;;;;;;12.00;10.00;;;;;11.37;72.49;100275.22;5036107;28;47645;-68
2022/03/14 09:07:45;;;;;;;;;10.33;10.33;;;;;11.41;71.87;100278.63;5055842;28;45451;-68
2022/03/14 09:10:12;;;;;;;;;17.00;16.00;;;;;11.46;72.58;100272.34;5056067;28;45358;-68
2022/03/14 09:12:39;;;;;;;;;15.67;13.00;;;;;11.52;72.10;100266.91;5038676;28;45359;-67
2022/03/14 09:15:07;;;;;;;;;14.67;13.67;;;;;11.56;71.68;100265.06;5037997;28;47617;-67
2022/03/14 09:17:32;;;;;;;;;16.00;16.00;;;;;11.61;71.55;100268.44;5052516;28;45396;-66
2022/03/14 09:20:00;;;;;;;;;16.67;15.67;;;;;11.67;71.22;100264.75;5054913;28;45446;-69
2022/03/14 09:22:26;;;;;;;;;12.00;11.33;;;;;11.74;71.76;100255.75;5034069;28;45692;-69
2022/03/14 09:24:54;;;;;;;;;12.00;11.00;;;;;11.81;71.22;100254.72;5055897;28;45395;-69
2022/03/14 09:27:19;;;;;;;;;14.67;12.67;;;;;11.84;71.05;100252.00;5051370;28;45438;-69
2022/03/14 09:29:45;;;;;;;;;14.00;14.00;;;;;11.86;70.59;100253.72;5056027;28;45396;-67
2022/03/14 09:32:13;;;;;;;;;9.67;9.00;;;;;11.95;70.50;100251.72;5054564;28;45415;-67
2022/03/14 09:34:39;;;;;;;;;14.67;14.33;;;;;12.05;70.47;100246.13;5037623;28;47305;-67
2022/03/14 09:37:05;;;;;;;;;16.33;14.33;;;;;12.14;69.20;100250.28;5048535;28;45458;-67
2022/03/14 09:39:32;;;;;;;;;16.00;16.00;;;;;12.22;69.25;100246.53;5037987;28;45363;-66
2022/03/14 09:42:00;;;;;;;;;11.00;10.00;;;;;12.31;69.08;100242.72;5043513;28;45520;-68
2022/03/14 09:44:28;;;;;;;;;15.00;11.25;;;;;12.43;68.18;100242.38;5055855;28;45449;-68
2022/03/14 09:46:58;;;;;;;;;10.33;10.33;;;;;12.52;68.01;100241.25;5050267;28;45396;-68
2022/03/14 09:49:26;;;;;;;;;10.50;9.50;;;;;12.61;67.07;100230.38;5055261;28;45184;-68
2022/03/14 09:51:53;;;;;;;;;17.33;13.00;;;;;12.68;66.90;100228.41;5052567;28;45515;-68
2022/03/14 09:54:21;;;;;;;;;14.33;13.00;;;;;12.70;66.98;100224.81;5055546;28;45973;-68
2022/03/14 09:56:48;;;;;;;;;14.33;13.67;;;;;12.72;65.73;100224.75;5046830;28;45418;-68
2022/03/14 09:59:13;;;;;;;;;13.67;12.67;;;;;12.71;65.87;100223.03;5055978;28;45397;-68
2022/03/14 10:01:40;;;;;;;;;13.33;12.00;;;;;12.75;66.33;100232.56;5047892;28;45374;-68
2022/03/14 10:04:08;;;;;;;;;15.00;14.67;;;;;12.79;66.12;100231.56;5055773;28;46721;-68
2022/03/14 10:06:35;;;;;;;;;13.25;12.00;;;;;12.86;65.21;100230.50;5050499;28;45374;-68
2022/03/14 10:09:01;;;;;;;;;14.50;11.00;;;;;12.87;65.06;100232.22;5055404;28;45387;-68
2022/03/14 10:11:27;;;;;;;;;12.25;11.00;;;;;12.86;65.00;100228.72;5048702;28;45453;-69
2022/03/14 10:13:52;;;;;;;;;12.25;12.25;;;;;12.85;64.72;100240.19;5055314;28;45418;-68
2022/03/14 10:16:17;;;;;;;;;12.50;11.50;;;;;12.84;64.79;100246.41;5049885;28;45375;-67
2022/03/14 10:18:53;;;;;;;;;12.00;11.00;;;;;12.86;64.46;100247.22;5051185;28;45394;-68
2022/03/14 10:21:51;;;;;;;;;10.25;10.25;;;;;12.91;64.44;100233.81;5064933;28;45391;-68
2022/03/14 10:24:22;;;;;;;;;10.75;10.75;;;;;12.99;64.57;100238.91;5013454;28;48464;-68
2022/03/14 10:26:47;;;;;;;;;14.75;13.25;;;;;13.09;64.55;100240.31;5045551;28;45366;-68
2022/03/14 10:29:13;;;;;;;;;11.00;11.00;;;;;13.17;63.80;100231.25;5054951;28;45490;-68
2022/03/14 10:31:41;;;;;;;;;10.00;10.00;;;;;13.26;63.96;100228.28;5054823;28;46196;-67
2022/03/14 10:34:18;;;;;;;;;11.00;11.00;;;;;13.39;63.69;100225.25;5055067;28;45643;-69
2022/03/14 10:36:45;;;;;;;;;16.25;14.00;;;;;13.48;63.52;100222.28;5054869;28;45422;-69
2022/03/14 10:39:21;;;;;;;;;12.50;11.25;;;;;13.57;62.47;100225.47;5054922;28;45527;-67
2022/03/14 10:42:07;;;;;;;;;11.00;11.00;;;;;13.68;62.70;100235.72;5054868;28;45456;-67
2022/03/14 10:44:34;;;;;;;;;12.75;12.25;;;;;13.80;61.73;100245.00;5054343;28;45565;-67
2022/03/14 10:47:00;;;;;;;;;9.50;9.00;;;;;13.87;61.45;100242.09;5054199;28;45416;-69
2022/03/14 10:49:31;;;;;;;;;6.00;4.75;;;;;13.97;60.68;100234.66;5053164;28;45406;-69
2022/03/14 10:52:03;;;;;;;;;12.00;12.00;;;;;14.03;61.56;100228.28;5054301;28;45413;-69
2022/03/14 10:54:30;;;;;;;;;9.00;9.00;;;;;14.09;61.41;100217.44;5054293;28;46581;-67
2022/03/14 10:57:23;;;;;;;;;12.25;10.50;;;;;14.18;61.26;100219.75;5036229;28;46049;-68
2022/03/14 10:59:55;;;;;;;;;9.00;9.00;;;;;14.26;59.88;100212.38;5054814;28;45437;-68
2022/03/14 11:02:26;;;;;;;;;8.50;8.50;;;;;14.29;59.32;100215.78;5053771;28;45300;-68
2022/03/14 11:04:59;;;;;;;;;6.25;6.25;;;;;14.33;59.81;100217.41;5053079;28;45619;-68
2022/03/14 11:07:31;;;;;;;;;9.75;7.75;;;;;14.39;59.41;100202.19;5053532;28;45509;-69
2022/03/14 11:09:59;;;;;;;;;6.25;6.25;;;;;14.42;60.15;100215.34;5054153;28;45409;-68
2022/03/14 11:12:28;;;;;;;;;5.50;5.50;;;;;14.43;59.39;100209.09;5054278;28;45536;-68
2022/03/14 11:15:00;;;;;;;;;8.75;8.75;;;;;14.43;59.56;100204.66;5053921;28;45472;-68
2022/03/14 11:17:33;;;;;;;;;8.75;8.75;;;;;14.43;60.09;100196.69;5053892;28;45445;-68
2022/03/14 11:20:00;;;;;;;;;5.00;5.00;;;;;14.49;59.89;100198.25;5054475;28;45414;-68